Time;durP1;ratioP1;P1;durP2;ratioP2;P2;SDS_P1;SDS_P2;PMS_P1;PMS_P2;Temp;Humidity;BMP_temperature;BMP_pressure;BME280_temperature;BME280_humidity;BME280_pressure;Samples;Min_cycle;Max_cycle;Signal;HPM_P1;HPM_P2
2022/04/14 00:00:05;;;;;;;7.00;4.88;;;13.30;99.90;;;;;;5004403;28;20222;-64
2022/04/14 00:02:32;;;;;;;7.05;4.30;;;13.30;99.90;;;;;;4993824;28;20241;-64
2022/04/14 00:04:59;;;;;;;9.68;5.15;;;13.30;99.90;;;;;;4999757;28;20723;-64
2022/04/14 00:07:26;;;;;;;6.45;4.47;;;13.30;99.90;;;;;;5009504;28;20722;-64
2022/04/14 00:09:53;;;;;;;7.10;4.55;;;13.30;99.90;;;;;;4987773;28;20219;-64
2022/04/14 00:12:21;;;;;;;6.53;4.15;;;13.30;99.90;;;;;;5008761;28;20202;-64
2022/04/14 00:14:48;;;;;;;6.05;4.45;;;13.30;99.90;;;;;;5006176;28;20218;-64
2022/04/14 00:17:14;;;;;;;8.52;5.32;;;13.30;99.90;;;;;;4998470;28;20220;-64
2022/04/14 00:19:42;;;;;;;6.43;4.93;;;13.30;99.90;;;;;;4992731;28;20228;-63
2022/04/14 00:22:09;;;;;;;7.53;4.60;;;13.20;99.90;;;;;;5008596;28;20202;-63
2022/04/14 00:24:36;;;;;;;7.55;5.20;;;13.20;99.90;;;;;;4989707;28;20216;-64
2022/04/14 00:27:03;;;;;;;6.90;4.63;;;13.20;99.90;;;;;;5009377;28;20427;-64
2022/04/14 00:29:32;;;;;;;6.40;4.15;;;13.20;99.90;;;;;;5013115;28;20208;-63
2022/04/14 00:31:59;;;;;;;6.32;4.82;;;13.20;99.90;;;;;;5009797;28;20202;-64
2022/04/14 00:34:25;;;;;;;8.95;4.90;;;13.20;99.90;;;;;;4995078;28;20206;-63
2022/04/14 00:36:52;;;;;;;7.70;4.43;;;13.20;99.90;;;;;;4995462;28;20218;-64
2022/04/14 00:39:19;;;;;;;4.85;4.15;;;13.20;99.90;;;;;;5009123;28;20225;-63
2022/04/14 00:41:46;;;;;;;5.53;4.50;;;13.20;99.90;;;;;;4990024;28;20884;-63
2022/04/14 00:44:13;;;;;;;6.35;4.38;;;13.10;99.90;;;;;;5009109;28;20204;-64
2022/04/14 00:46:41;;;;;;;6.82;4.68;;;13.10;99.90;;;;;;5005939;28;20202;-63
2022/04/14 00:49:08;;;;;;;6.00;4.47;;;13.10;99.90;;;;;;4998699;28;20280;-63
2022/04/14 00:51:35;;;;;;;7.88;4.55;;;13.10;99.90;;;;;;4996899;28;20198;-64
2022/04/14 00:54:03;;;;;;;6.70;4.40;;;13.00;99.90;;;;;;5013122;28;21332;-65
2022/04/14 00:56:29;;;;;;;5.45;4.47;;;13.00;99.90;;;;;;4993970;28;20207;-63
2022/04/14 00:58:56;;;;;;;4.95;3.97;;;13.00;99.90;;;;;;5006122;28;20200;-63
2022/04/14 01:01:23;;;;;;;6.82;4.50;;;13.00;99.90;;;;;;5005265;28;20253;-64
2022/04/14 01:03:53;;;;;;;5.57;4.55;;;13.00;99.90;;;;;;4996109;28;20202;-64
2022/04/14 01:06:21;;;;;;;7.93;4.93;;;13.00;99.90;;;;;;4993173;28;20213;-64
2022/04/14 01:11:30;;;;;;;5.78;4.82;;;13.00;99.90;;;;;;5002372;28;20198;-64
2022/04/14 01:13:57;;;;;;;7.43;5.40;;;13.00;99.90;;;;;;4992637;28;20221;-64
2022/04/14 01:16:24;;;;;;;5.40;4.47;;;12.90;99.90;;;;;;5009479;28;20202;-63
2022/04/14 01:18:52;;;;;;;7.30;5.03;;;12.90;99.90;;;;;;5004931;28;20688;-64
2022/04/14 01:21:21;;;;;;;5.78;4.70;;;12.90;99.90;;;;;;5002346;28;20206;-64
2022/04/14 01:23:50;;;;;;;6.60;4.93;;;12.90;99.90;;;;;;4993516;28;20202;-63
2022/04/14 01:26:16;;;;;;;7.80;5.63;;;12.90;99.90;;;;;;5011396;28;20193;-65
2022/04/14 01:28:43;;;;;;;8.32;5.38;;;12.90;99.90;;;;;;4994989;28;20222;-64
2022/04/14 01:31:11;;;;;;;7.65;5.13;;;12.90;99.90;;;;;;5002277;28;20213;-64
2022/04/14 01:33:38;;;;;;;9.35;5.50;;;12.90;99.90;;;;;;5013650;28;20199;-64
2022/04/14 01:36:07;;;;;;;6.85;5.05;;;12.90;99.90;;;;;;5004869;28;20211;-63
2022/04/14 01:38:34;;;;;;;8.60;5.40;;;12.80;99.90;;;;;;5010297;28;20198;-64
2022/04/14 01:41:03;;;;;;;6.95;5.18;;;12.80;99.90;;;;;;5016785;28;20232;-64
2022/04/14 01:43:29;;;;;;;7.90;4.95;;;12.80;99.90;;;;;;5009425;28;20208;-64
2022/04/14 01:45:56;;;;;;;6.63;5.03;;;12.80;99.90;;;;;;5033275;28;20258;-63
2022/04/14 01:48:23;;;;;;;7.03;5.28;;;12.70;99.90;;;;;;5030398;28;20705;-64
2022/04/14 01:50:50;;;;;;;9.20;5.25;;;12.60;99.90;;;;;;5013233;28;20202;-63
2022/04/14 01:53:17;;;;;;;8.63;5.55;;;12.60;99.90;;;;;;5006652;28;20204;-63
2022/04/14 01:55:44;;;;;;;7.10;5.13;;;12.60;99.90;;;;;;5000141;28;20213;-63
2022/04/14 01:58:13;;;;;;;11.15;5.70;;;12.60;99.90;;;;;;5010731;28;20569;-64
2022/04/14 02:00:40;;;;;;;7.78;5.68;;;12.60;99.90;;;;;;4987714;28;20209;-64
2022/04/14 02:03:07;;;;;;;6.07;4.88;;;12.60;99.90;;;;;;5008155;28;20194;-63
2022/04/14 02:05:33;;;;;;;7.35;5.40;;;12.60;99.90;;;;;;5010089;28;20563;-64
2022/04/14 02:08:01;;;;;;;10.35;6.05;;;12.60;99.90;;;;;;4988256;28;20227;-64
2022/04/14 02:10:28;;;;;;;6.25;5.07;;;12.60;99.90;;;;;;5008550;28;20202;-63
2022/04/14 02:12:54;;;;;;;8.73;5.90;;;12.70;99.90;;;;;;5008506;28;20228;-63
2022/04/14 02:15:23;;;;;;;8.60;5.50;;;12.60;99.90;;;;;;4989644;28;20280;-67
2022/04/14 02:17:50;;;;;;;13.68;5.40;;;12.60;99.90;;;;;;4998973;28;20210;-63
2022/04/14 02:20:17;;;;;;;7.35;5.32;;;12.60;99.90;;;;;;5006673;28;20198;-64
2022/04/14 02:22:44;;;;;;;8.25;6.13;;;12.60;99.90;;;;;;5001082;28;20202;-65
2022/04/14 02:25:11;;;;;;;7.88;5.68;;;12.50;99.90;;;;;;4998215;28;20217;-64
2022/04/14 02:27:38;;;;;;;7.90;5.45;;;12.60;99.90;;;;;;5010146;28;20236;-63
2022/04/14 02:30:07;;;;;;;9.43;6.05;;;12.50;99.90;;;;;;4988413;28;20221;-64
2022/04/14 02:32:35;;;;;;;7.07;5.28;;;12.50;99.90;;;;;;4999671;28;20705;-64
2022/04/14 02:35:04;;;;;;;12.13;5.85;;;12.50;99.90;;;;;;4994704;28;20206;-64
2022/04/14 02:37:31;;;;;;;8.05;5.45;;;12.40;99.90;;;;;;4998286;28;20206;-63
2022/04/14 02:39:58;;;;;;;10.25;5.90;;;12.40;99.90;;;;;;5001459;28;20224;-64
2022/04/14 02:42:25;;;;;;;8.23;5.70;;;12.40;99.90;;;;;;5011525;28;20209;-63
2022/04/14 02:44:52;;;;;;;9.27;5.78;;;12.40;99.90;;;;;;5009238;28;20221;-63
2022/04/14 02:47:18;;;;;;;7.93;5.65;;;12.40;99.90;;;;;;4984701;28;20680;-63
2022/04/14 02:49:47;;;;;;;7.53;5.45;;;12.40;99.90;;;;;;5006871;28;20249;-64
2022/04/14 02:52:14;;;;;;;11.43;5.75;;;12.40;99.90;;;;;;5009631;28;20199;-63
2022/04/14 02:54:41;;;;;;;8.18;5.57;;;12.40;99.90;;;;;;4990067;28;20208;-65
2022/04/14 02:57:09;;;;;;;9.77;5.80;;;12.40;99.90;;;;;;5011865;28;20191;-63
2022/04/14 02:59:36;;;;;;;8.88;5.80;;;12.40;99.90;;;;;;5008204;28;20604;-64
2022/04/14 03:02:04;;;;;;;9.27;5.75;;;12.30;99.90;;;;;;4989307;28;20714;-64
2022/04/14 03:04:31;;;;;;;9.25;5.75;;;12.30;99.90;;;;;;5007163;28;20662;-64
2022/04/14 03:07:00;;;;;;;9.18;6.03;;;12.30;99.90;;;;;;5011687;28;20190;-63
2022/04/14 03:09:27;;;;;;;8.65;5.72;;;12.30;99.90;;;;;;5000515;28;20230;-64
2022/04/14 03:11:54;;;;;;;10.30;5.85;;;12.30;99.90;;;;;;4998880;28;21784;-64
2022/04/14 03:14:21;;;;;;;8.00;6.10;;;12.30;99.90;;;;;;5007898;28;20210;-63
2022/04/14 03:16:48;;;;;;;9.88;6.05;;;12.30;99.90;;;;;;4992420;28;20217;-64
2022/04/14 03:19:16;;;;;;;10.88;6.10;;;12.30;99.90;;;;;;5001408;28;20206;-63
2022/04/14 03:21:43;;;;;;;8.50;6.20;;;12.20;99.90;;;;;;5010562;28;20283;-63
2022/04/14 03:24:11;;;;;;;9.13;5.90;;;12.20;99.90;;;;;;4988941;28;20577;-63
2022/04/14 03:26:38;;;;;;;8.32;6.55;;;12.20;99.90;;;;;;4996611;28;20210;-63
2022/04/14 03:29:04;;;;;;;8.32;5.72;;;12.10;99.90;;;;;;5007062;28;20237;-63
2022/04/14 03:31:31;;;;;;;8.50;6.13;;;12.10;99.90;;;;;;4996595;28;20213;-64
2022/04/14 03:33:58;;;;;;;9.45;6.63;;;12.10;99.90;;;;;;4995975;28;20396;-64
2022/04/14 03:36:25;;;;;;;10.40;6.32;;;12.20;99.90;;;;;;5003904;28;20206;-63
2022/04/14 03:38:52;;;;;;;10.43;6.28;;;12.10;99.90;;;;;;4996140;28;20214;-63
2022/04/14 03:41:21;;;;;;;9.30;6.45;;;12.10;99.90;;;;;;4988672;28;20795;-63
2022/04/14 03:43:48;;;;;;;8.88;6.55;;;12.10;99.90;;;;;;5007090;28;20208;-63
2022/04/14 03:46:15;;;;;;;8.20;5.85;;;12.10;99.90;;;;;;5011003;28;20879;-63
2022/04/14 03:48:42;;;;;;;8.65;6.18;;;12.00;99.90;;;;;;4995873;28;20809;-63
2022/04/14 03:51:10;;;;;;;12.10;6.78;;;11.90;99.90;;;;;;5006077;28;20190;-63
2022/04/14 03:53:37;;;;;;;10.82;6.20;;;12.00;99.90;;;;;;4999557;28;20298;-63
2022/04/14 03:56:04;;;;;;;9.40;6.88;;;12.00;99.90;;;;;;4995303;28;20201;-63
2022/04/14 03:58:33;;;;;;;13.30;6.95;;;11.90;99.90;;;;;;4999282;28;20240;-63
2022/04/14 04:01:00;;;;;;;8.75;7.05;;;11.90;99.90;;;;;;5016661;28;20214;-64
2022/04/14 04:03:26;;;;;;;11.70;6.88;;;12.00;99.90;;;;;;5008044;28;20206;-63
2022/04/14 04:05:54;;;;;;;11.30;6.45;;;11.90;99.90;;;;;;5007598;28;20210;-64
2022/04/14 04:08:21;;;;;;;10.43;7.30;;;11.90;99.90;;;;;;4997131;28;20668;-63
2022/04/14 04:10:48;;;;;;;9.75;7.05;;;11.90;99.90;;;;;;4999982;28;20225;-63
2022/04/14 04:13:15;;;;;;;11.93;6.93;;;11.90;99.90;;;;;;4998399;28;20202;-63
2022/04/14 04:15:43;;;;;;;13.55;7.38;;;11.90;99.90;;;;;;5008951;28;20212;-63
2022/04/14 04:18:10;;;;;;;10.63;7.43;;;12.00;99.90;;;;;;5008681;28;20618;-64
2022/04/14 04:20:38;;;;;;;11.95;7.43;;;12.00;99.90;;;;;;4997719;28;20641;-63
2022/04/14 04:23:05;;;;;;;10.45;7.57;;;12.00;99.90;;;;;;5015244;28;20203;-63
2022/04/14 04:25:32;;;;;;;12.20;7.47;;;12.00;99.90;;;;;;4998495;28;20233;-64
2022/04/14 04:27:59;;;;;;;13.10;7.13;;;12.00;99.90;;;;;;5031893;28;20298;-64
2022/04/14 04:30:26;;;;;;;13.10;7.47;;;11.90;99.90;;;;;;5031278;28;20233;-62
2022/04/14 04:32:54;;;;;;;14.10;8.13;;;11.90;99.90;;;;;;5022226;28;20309;-63
2022/04/14 04:35:21;;;;;;;11.05;7.28;;;11.90;99.90;;;;;;4996967;28;20202;-64
2022/04/14 04:37:48;;;;;;;11.85;7.22;;;11.90;99.90;;;;;;5009929;28;20313;-64
2022/04/14 04:40:18;;;;;;;12.63;7.32;;;11.80;99.90;;;;;;4992491;28;20203;-64
2022/04/14 04:42:45;;;;;;;11.88;7.80;;;11.80;99.90;;;;;;4992664;28;20194;-63
2022/04/14 04:45:12;;;;;;;11.57;7.93;;;11.90;99.90;;;;;;4998762;28;20904;-63
2022/04/14 04:47:39;;;;;;;10.48;7.65;;;11.90;99.90;;;;;;5007410;28;20199;-64
2022/04/14 04:50:08;;;;;;;12.07;7.35;;;11.80;99.90;;;;;;4978409;28;20242;-64
2022/04/14 04:52:36;;;;;;;13.10;7.65;;;11.90;99.90;;;;;;5006236;28;20262;-64
2022/04/14 04:55:03;;;;;;;12.02;7.68;;;11.90;99.90;;;;;;4998111;28;20202;-64
2022/04/14 04:57:30;;;;;;;14.18;8.55;;;11.90;99.90;;;;;;4989509;28;20256;-63
2022/04/14 04:59:58;;;;;;;14.05;8.45;;;11.80;99.90;;;;;;4994634;28;20862;-63
2022/04/14 05:02:25;;;;;;;11.25;7.85;;;11.80;99.90;;;;;;5002899;28;20206;-64
2022/04/14 05:04:52;;;;;;;11.55;8.43;;;11.80;99.90;;;;;;5004829;28;20590;-64
2022/04/14 05:07:20;;;;;;;12.65;8.43;;;11.80;99.90;;;;;;4981969;28;20819;-64
2022/04/14 05:09:46;;;;;;;11.20;8.43;;;11.90;99.90;;;;;;5006596;28;20705;-63
2022/04/14 05:12:14;;;;;;;12.25;8.55;;;11.80;99.90;;;;;;4975160;28;20226;-64
2022/04/14 05:14:40;;;;;;;14.00;8.57;;;11.80;99.90;;;;;;4984226;28;20230;-63
2022/04/14 05:17:07;;;;;;;12.43;8.05;;;11.80;99.90;;;;;;5005051;28;21918;-63
2022/04/14 05:19:34;;;;;;;13.45;8.55;;;11.80;99.90;;;;;;4995187;28;20280;-63
2022/04/14 05:22:02;;;;;;;9.77;8.20;;;11.80;99.90;;;;;;4985915;28;20329;-63
2022/04/14 05:24:31;;;;;;;16.42;9.10;;;11.80;99.90;;;;;;5002372;28;20210;-63
2022/04/14 05:26:59;;;;;;;16.40;9.45;;;11.80;99.90;;;;;;4986767;28;20202;-63
2022/04/14 05:29:26;;;;;;;15.10;10.20;;;11.80;99.90;;;;;;4996108;28;20236;-64
2022/04/14 05:31:53;;;;;;;17.17;9.05;;;11.80;99.90;;;;;;4984535;28;20202;-64
2022/04/14 05:34:20;;;;;;;12.43;9.52;;;11.90;99.90;;;;;;4994817;28;20865;-64
2022/04/14 05:36:47;;;;;;;16.88;9.68;;;11.90;99.90;;;;;;4990218;28;20202;-63
2022/04/14 05:39:13;;;;;;;16.15;10.45;;;11.90;99.90;;;;;;5006925;28;20202;-63
2022/04/14 05:41:42;;;;;;;15.38;9.85;;;11.90;99.90;;;;;;4997210;28;20220;-63
2022/04/14 05:44:09;;;;;;;15.13;9.32;;;12.00;99.90;;;;;;4983938;28;20195;-63
2022/04/14 05:46:36;;;;;;;15.07;9.43;;;12.00;99.90;;;;;;4998240;28;20541;-63
2022/04/14 05:49:03;;;;;;;14.95;9.95;;;12.00;99.90;;;;;;5006712;28;20226;-64
2022/04/14 05:51:30;;;;;;;14.68;9.65;;;12.00;99.90;;;;;;5007710;28;20616;-64
2022/04/14 05:53:57;;;;;;;17.23;11.25;;;12.00;99.90;;;;;;4983862;28;20215;-64
2022/04/14 05:56:24;;;;;;;20.50;11.45;;;12.10;99.90;;;;;;5006843;28;20213;-63
2022/04/14 05:58:53;;;;;;;14.77;10.98;;;12.10;99.90;;;;;;4982415;28;20571;-63
2022/04/14 06:01:21;;;;;;;18.90;10.68;;;12.10;99.90;;;;;;5002501;28;21322;-63
2022/04/14 06:03:48;;;;;;;19.83;10.55;;;12.10;99.90;;;;;;5010086;28;20433;-63
2022/04/14 06:06:15;;;;;;;14.57;10.45;;;12.10;99.90;;;;;;5003164;28;20325;-63
2022/04/14 06:08:43;;;;;;;21.55;11.45;;;12.20;99.90;;;;;;4989431;28;20226;-63
2022/04/14 06:11:11;;;;;;;17.83;11.82;;;12.20;99.90;;;;;;4991180;28;20221;-63
2022/04/14 06:13:38;;;;;;;19.88;11.25;;;12.30;99.90;;;;;;4984846;28;20225;-63
2022/04/14 06:16:06;;;;;;;18.83;11.90;;;12.30;99.90;;;;;;4985009;28;20217;-63
2022/04/14 06:18:34;;;;;;;16.83;11.43;;;12.30;99.90;;;;;;5005896;28;21850;-63
2022/04/14 06:21:01;;;;;;;23.65;12.77;;;12.30;99.90;;;;;;5011521;28;20325;-63
2022/04/14 06:23:30;;;;;;;18.52;11.57;;;12.30;99.90;;;;;;4994800;28;20925;-63
2022/04/14 06:25:57;;;;;;;22.98;13.02;;;12.30;99.90;;;;;;4991509;28;20699;-63
2022/04/14 06:28:25;;;;;;;16.27;11.10;;;12.40;99.90;;;;;;5001058;28;20198;-64
2022/04/14 06:30:52;;;;;;;20.42;12.75;;;12.40;99.90;;;;;;4991327;28;20226;-63
2022/04/14 06:33:21;;;;;;;16.58;11.60;;;12.40;99.90;;;;;;4995923;28;20651;-63
2022/04/14 06:35:48;;;;;;;18.33;12.32;;;12.40;99.90;;;;;;5009503;28;20198;-63
2022/04/14 06:38:15;;;;;;;21.92;12.70;;;12.50;99.90;;;;;;5007509;28;20227;-63
2022/04/14 06:40:42;;;;;;;21.92;12.90;;;12.50;99.90;;;;;;4990409;28;21173;-63
2022/04/14 06:43:09;;;;;;;26.65;13.20;;;12.50;99.90;;;;;;5008303;28;20190;-63
2022/04/14 06:45:36;;;;;;;24.40;13.35;;;12.50;99.90;;;;;;4981287;28;20233;-63
2022/04/14 06:48:04;;;;;;;20.23;12.70;;;12.50;99.90;;;;;;4999584;28;20224;-62
2022/04/14 06:50:33;;;;;;;20.15;13.27;;;12.50;99.90;;;;;;5006372;28;20237;-64
2022/04/14 06:52:59;;;;;;;22.15;13.52;;;12.50;99.90;;;;;;5002380;28;20249;-63
2022/04/14 06:55:27;;;;;;;26.45;14.18;;;12.50;99.90;;;;;;5004801;28;20216;-63
2022/04/14 06:57:56;;;;;;;26.65;14.23;;;12.50;99.90;;;;;;5016351;28;20240;-62
2022/04/14 07:00:23;;;;;;;22.02;13.85;;;12.50;99.90;;;;;;4997339;28;20202;-63
2022/04/14 07:02:53;;;;;;;22.00;14.05;;;12.50;99.90;;;;;;5006424;28;20203;-63
2022/04/14 07:05:22;;;;;;;21.75;14.13;;;12.50;99.90;;;;;;5008246;28;20210;-63
2022/04/14 07:07:53;;;;;;;26.98;14.60;;;12.40;99.90;;;;;;5005491;28;20793;-63
2022/04/14 07:10:20;;;;;;;28.05;14.77;;;12.40;99.90;;;;;;5015746;28;20206;-62
2022/04/14 07:12:48;;;;;;;22.25;15.15;;;12.50;99.90;;;;;;5035998;28;20505;-64
2022/04/14 07:15:16;;;;;;;21.92;14.60;;;12.50;99.90;;;;;;5010884;28;20300;-63
2022/04/14 07:17:44;;;;;;;23.15;15.10;;;12.40;99.90;;;;;;4996126;28;20831;-63
2022/04/14 07:20:11;;;;;;;20.83;14.00;;;12.50;99.90;;;;;;5005714;28;20364;-63
2022/04/14 07:22:44;;;;;;;23.85;14.73;;;12.40;99.90;;;;;;5007610;28;20190;-63
2022/04/14 07:25:15;;;;;;;21.98;15.30;;;12.50;99.90;;;;;;5014881;28;20612;-62
2022/04/14 07:27:43;;;;;;;26.15;15.38;;;12.50;99.90;;;;;;5002597;28;20214;-63
2022/04/14 07:30:11;;;;;;;28.35;13.73;;;12.40;99.90;;;;;;4990821;28;20236;-63
2022/04/14 07:32:45;;;;;;;23.70;13.93;;;12.40;99.90;;;;;;5003212;28;20249;-63
2022/04/14 07:35:13;;;;;;;25.30;15.55;;;12.40;99.90;;;;;;4999092;28;20229;-63
2022/04/14 07:37:40;;;;;;;23.65;14.77;;;12.40;99.90;;;;;;4992137;28;20242;-62
2022/04/14 07:40:08;;;;;;;23.88;15.25;;;12.30;99.90;;;;;;4990523;28;20226;-63
2022/04/14 07:42:38;;;;;;;25.17;15.02;;;12.30;99.90;;;;;;4987018;28;21310;-64
2022/04/14 07:45:07;;;;;;;25.23;15.15;;;12.30;99.90;;;;;;4992709;28;20217;-63
2022/04/14 07:47:34;;;;;;;25.58;15.32;;;12.30;99.90;;;;;;4997729;28;20221;-63
2022/04/14 07:50:01;;;;;;;24.13;14.02;;;12.30;99.90;;;;;;4992508;28;20249;-63
2022/04/14 07:52:28;;;;;;;23.83;14.77;;;12.30;99.90;;;;;;4997333;28;20610;-63
2022/04/14 07:54:55;;;;;;;28.85;15.75;;;12.40;99.90;;;;;;5002122;28;20624;-63
2022/04/14 07:57:21;;;;;;;25.50;15.55;;;12.40;99.90;;;;;;4991268;28;20240;-63
2022/04/14 07:59:50;;;;;;;23.55;15.20;;;12.50;99.90;;;;;;5008151;28;20695;-63
2022/04/14 08:02:19;;;;;;;27.52;16.35;;;12.60;99.90;;;;;;4996935;28;20213;-63
2022/04/14 08:04:47;;;;;;;21.38;15.07;;;12.70;99.90;;;;;;5005759;28;20237;-63
2022/04/14 08:07:13;;;;;;;29.23;17.88;;;12.70;99.90;;;;;;4988688;28;20619;-63
2022/04/14 08:09:41;;;;;;;29.00;16.05;;;12.80;99.90;;;;;;5011149;28;20232;-62
2022/04/14 08:12:09;;;;;;;27.63;15.70;;;12.80;99.90;;;;;;4986125;28;20214;-63
2022/04/14 08:14:36;;;;;;;23.48;15.15;;;12.90;99.90;;;;;;5004936;28;20265;-63
2022/04/14 08:17:05;;;;;;;24.02;14.52;;;13.00;99.90;;;;;;4993651;28;20257;-63
2022/04/14 08:19:34;;;;;;;24.00;14.73;;;13.10;99.90;;;;;;5000042;28;20238;-63
2022/04/14 08:22:01;;;;;;;37.58;16.80;;;13.10;99.90;;;;;;4980721;28;20216;-64
2022/04/14 08:24:28;;;;;;;26.30;14.40;;;13.20;99.90;;;;;;5002714;28;20229;-63
2022/04/14 08:26:55;;;;;;;27.40;15.75;;;13.30;99.90;;;;;;4989928;28;20219;-63
2022/04/14 08:29:22;;;;;;;23.30;14.85;;;13.30;99.90;;;;;;5001870;28;20229;-64
2022/04/14 08:31:49;;;;;;;24.60;14.90;;;13.30;99.90;;;;;;4992079;28;20217;-64
2022/04/14 08:34:17;;;;;;;21.98;13.48;;;13.40;99.90;;;;;;4991882;28;20231;-63
2022/04/14 08:36:44;;;;;;;23.50;13.25;;;13.50;99.90;;;;;;5000582;28;20202;-63
2022/04/14 08:39:12;;;;;;;21.25;13.80;;;13.60;99.90;;;;;;4995826;28;20226;-64
2022/04/14 08:41:45;;;;;;;23.13;13.45;;;13.60;99.90;;;;;;4987774;28;20322;-63
2022/04/14 08:44:14;;;;;;;20.02;12.77;;;13.60;99.90;;;;;;5000972;28;20228;-63
2022/04/14 08:46:42;;;;;;;20.65;13.25;;;13.70;99.90;;;;;;4991883;28;20278;-63
2022/04/14 08:49:11;;;;;;;25.27;13.30;;;13.70;99.90;;;;;;4989978;28;20206;-63
2022/04/14 08:51:41;;;;;;;26.00;12.65;;;13.80;99.90;;;;;;5001842;28;20362;-63
2022/04/14 08:54:09;;;;;;;20.77;12.73;;;13.80;99.90;;;;;;4999849;28;20230;-63
2022/04/14 08:56:36;;;;;;;21.17;12.30;;;13.90;99.90;;;;;;5005774;28;20218;-67
2022/04/14 08:59:03;;;;;;;16.95;12.05;;;14.00;99.90;;;;;;4996803;28;20244;-63
2022/04/14 09:01:31;;;;;;;19.95;12.55;;;14.00;99.90;;;;;;5011215;28;20209;-63
2022/04/14 09:03:59;;;;;;;20.25;12.00;;;14.00;99.90;;;;;;5010073;28;20234;-63
2022/04/14 09:06:29;;;;;;;15.68;12.00;;;14.20;99.90;;;;;;4995482;28;20399;-63
2022/04/14 09:08:59;;;;;;;22.88;11.65;;;14.30;99.90;;;;;;5010514;28;20206;-63
2022/04/14 09:11:26;;;;;;;16.85;11.55;;;14.30;99.90;;;;;;5015696;28;20226;-63
2022/04/14 09:13:54;;;;;;;13.50;10.30;;;14.20;99.90;;;;;;4994127;28;20214;-63
2022/04/14 09:16:21;;;;;;;14.82;10.25;;;14.30;99.90;;;;;;4994692;28;20214;-62
2022/04/14 09:18:49;;;;;;;13.25;9.90;;;14.30;99.90;;;;;;5001899;28;20292;-63
2022/04/14 09:21:16;;;;;;;15.18;9.85;;;14.40;99.90;;;;;;5004751;28;20242;-64
2022/04/14 09:23:50;;;;;;;17.52;10.18;;;14.40;99.90;;;;;;5007412;28;20210;-63
2022/04/14 09:26:23;;;;;;;13.57;10.43;;;14.40;99.90;;;;;;5019856;28;20205;-63
2022/04/14 09:29:05;;;;;;;16.23;10.65;;;14.40;99.90;;;;;;5008261;28;20217;-63
2022/04/14 09:31:47;;;;;;;14.63;9.88;;;14.60;99.90;;;;;;5024500;28;20222;-63
2022/04/14 09:34:15;;;;;;;17.45;10.73;;;14.60;99.90;;;;;;5006590;28;20202;-63
2022/04/14 09:36:42;;;;;;;10.73;8.57;;;14.60;99.90;;;;;;4988465;28;20330;-63
2022/04/14 09:39:09;;;;;;;15.02;9.38;;;14.60;99.90;;;;;;5002754;28;20746;-63
2022/04/14 09:41:39;;;;;;;13.60;9.55;;;14.60;99.90;;;;;;5005437;28;22663;-63
2022/04/14 09:44:09;;;;;;;12.32;9.10;;;14.70;99.90;;;;;;4993977;28;20221;-63
2022/04/14 09:46:38;;;;;;;13.07;9.45;;;14.80;99.90;;;;;;4998170;28;20222;-63
2022/04/14 09:49:10;;;;;;;15.25;9.20;;;14.80;99.90;;;;;;5009484;28;20203;-62
2022/04/14 09:51:38;;;;;;;12.52;8.95;;;15.00;99.90;;;;;;4998668;28;20233;-63
2022/04/14 09:54:11;;;;;;;13.45;9.13;;;15.10;99.90;;;;;;4995318;28;20318;-63
2022/04/14 09:56:49;;;;;;;14.07;8.75;;;15.10;99.90;;;;;;5033728;28;20198;-63
2022/04/14 09:59:18;;;;;;;13.40;8.50;;;15.10;99.90;;;;;;5005970;28;20779;-62
2022/04/14 10:01:46;;;;;;;13.18;8.80;;;15.00;99.90;;;;;;5020720;28;20205;-63
2022/04/14 10:04:33;;;;;;;9.93;6.97;;;15.00;99.90;;;;;;5010658;28;20806;-63
2022/04/14 10:07:05;;;;;;;9.77;7.80;;;15.20;99.90;;;;;;4998952;28;20194;-62
2022/04/14 10:09:33;;;;;;;9.90;7.90;;;15.40;99.90;;;;;;4986944;28;20226;-63
2022/04/14 10:12:01;;;;;;;9.07;7.38;;;15.60;99.90;;;;;;4996074;28;21062;-63
2022/04/14 10:14:28;;;;;;;8.43;6.28;;;15.70;99.90;;;;;;4990902;28;20221;-63
2022/04/14 10:16:57;;;;;;;11.98;6.03;;;15.90;99.90;;;;;;5000354;28;20698;-63
2022/04/14 10:19:24;;;;;;;11.25;6.72;;;15.90;99.90;;;;;;4997749;28;20762;-63
2022/04/14 10:21:52;;;;;;;10.52;7.45;;;15.90;99.90;;;;;;4994147;28;20253;-63
2022/04/14 10:24:20;;;;;;;11.60;8.10;;;15.80;99.90;;;;;;4985507;28;20317;-63
2022/04/14 10:26:48;;;;;;;12.40;8.00;;;15.70;99.90;;;;;;4997042;28;20601;-63
2022/04/14 10:29:19;;;;;;;10.38;7.45;;;15.70;99.90;;;;;;5002531;28;20852;-63
2022/04/14 10:31:49;;;;;;;12.20;8.18;;;15.80;99.90;;;;;;4990170;28;20230;-63
2022/04/14 10:34:18;;;;;;;8.00;6.10;;;15.80;99.90;;;;;;5006802;28;20723;-62
2022/04/14 10:36:48;;;;;;;6.88;6.18;;;15.80;99.90;;;;;;4994129;28;20207;-63
2022/04/14 10:39:16;;;;;;;10.80;7.45;;;15.70;99.90;;;;;;4992524;28;20810;-62
2022/04/14 10:41:48;;;;;;;9.27;7.43;;;15.90;99.90;;;;;;4997743;28;20226;-62
2022/04/14 10:44:21;;;;;;;10.15;6.95;;;15.80;99.90;;;;;;5000012;28;20709;-62
2022/04/14 10:46:51;;;;;;;9.85;6.75;;;15.80;99.90;;;;;;4975420;28;22278;-62
2022/04/14 10:49:24;;;;;;;7.57;5.57;;;15.90;99.90;;;;;;5007864;28;20697;-62
2022/04/14 10:51:53;;;;;;;9.50;6.40;;;16.00;99.90;;;;;;4998524;28;20239;-62
2022/04/14 10:54:21;;;;;;;9.10;6.35;;;16.30;99.90;;;;;;4987482;28;20207;-62
2022/04/14 10:56:52;;;;;;;9.18;6.80;;;16.40;99.90;;;;;;4996750;28;20316;-62
2022/04/14 10:59:22;;;;;;;11.80;6.90;;;16.30;99.90;;;;;;4997648;28;20213;-64
2022/04/14 11:01:54;;;;;;;11.77;7.32;;;16.40;99.90;;;;;;5007581;28;20719;-62
2022/04/14 11:04:25;;;;;;;8.93;6.78;;;16.50;99.90;;;;;;4990142;28;21094;-62
2022/04/14 11:06:54;;;;;;;9.27;6.80;;;16.50;99.90;;;;;;5004955;28;20263;-63
2022/04/14 11:09:48;;;;;;;10.05;6.93;;;16.30;99.90;;;;;;4993119;28;20302;-62
2022/04/14 11:12:16;;;;;;;8.98;7.40;;;16.20;99.90;;;;;;4999233;28;20221;-62
2022/04/14 11:14:53;;;;;;;10.30;7.13;;;16.30;99.90;;;;;;5008387;28;20214;-63
2022/04/14 11:17:58;;;;;;;9.23;6.88;;;16.20;99.90;;;;;;4996678;28;20217;-63
2022/04/14 11:20:54;;;;;;;8.10;6.22;;;16.20;99.90;;;;;;4977748;28;20229;-62
2022/04/14 11:23:26;;;;;;;7.07;5.50;;;16.10;99.90;;;;;;4998711;28;20225;-63
2022/04/14 11:26:01;;;;;;;6.97;6.15;;;16.10;99.90;;;;;;5001344;28;20605;-63
2022/04/14 11:28:30;;;;;;;6.70;5.22;;;16.30;99.90;;;;;;4997097;28;20231;-63
2022/04/14 11:31:00;;;;;;;7.35;5.63;;;16.30;99.90;;;;;;5014393;28;20349;-63
2022/04/14 11:33:37;;;;;;;6.40;5.28;;;16.50;99.90;;;;;;5007215;28;20202;-63
2022/04/14 11:36:12;;;;;;;9.82;6.03;;;16.70;99.90;;;;;;4995908;28;20225;-62
2022/04/14 11:38:53;;;;;;;5.25;4.65;;;16.90;99.90;;;;;;5003181;28;20206;-63
2022/04/14 11:41:43;;;;;;;6.03;5.18;;;16.90;99.90;;;;;;5005275;28;20207;-63
2022/04/14 11:44:12;;;;;;;7.60;4.63;;;16.80;99.90;;;;;;5008540;28;20202;-62
2022/04/14 11:46:43;;;;;;;4.20;3.55;;;16.70;99.90;;;;;;5007717;28;20216;-63
2022/04/14 11:49:12;;;;;;;4.60;2.83;;;16.50;99.90;;;;;;5010535;28;20202;-63
2022/04/14 11:51:47;;;;;;;5.38;4.45;;;16.30;99.90;;;;;;4997267;28;20245;-63
2022/04/14 11:54:19;;;;;;;4.35;3.95;;;16.30;99.90;;;;;;4998392;28;20233;-63
2022/04/14 11:56:50;;;;;;;4.20;3.80;;;16.20;99.90;;;;;;5003412;28;20309;-63
2022/04/14 11:59:19;;;;;;;4.68;3.40;;;16.20;99.90;;;;;;4992580;28;20216;-63
2022/04/14 12:01:51;;;;;;;7.20;4.25;;;16.00;99.90;;;;;;5002938;28;20289;-64
2022/04/14 12:04:18;;;;;;;3.75;3.30;;;15.90;99.90;;;;;;5003895;28;21038;-63
2022/04/14 12:06:55;;;;;;;5.18;3.55;;;15.90;99.90;;;;;;4995101;28;20230;-63
2022/04/14 12:09:24;;;;;;;7.95;3.60;;;15.90;99.90;;;;;;5004655;28;20226;-63
2022/04/14 12:11:52;;;;;;;6.47;4.68;;;15.90;99.90;;;;;;5000860;28;20311;-63
2022/04/14 12:14:19;;;;;;;6.68;5.00;;;16.00;99.90;;;;;;4991770;28;20226;-63
2022/04/14 12:16:52;;;;;;;5.82;4.43;;;16.00;99.90;;;;;;4999643;28;20225;-63
2022/04/14 12:19:20;;;;;;;4.47;3.83;;;16.10;99.90;;;;;;4998230;28;20249;-63
2022/04/14 12:22:01;;;;;;;5.65;4.32;;;16.00;99.90;;;;;;4996906;28;20234;-63
2022/04/14 12:24:29;;;;;;;7.47;4.20;;;15.90;99.90;;;;;;4998051;28;20235;-63
2022/04/14 12:26:57;;;;;;;5.80;4.93;;;15.90;99.90;;;;;;5005919;28;20745;-63
2022/04/14 12:29:24;;;;;;;7.00;5.72;;;15.90;99.90;;;;;;5000852;28;20273;-64
2022/04/14 12:31:56;;;;;;;7.32;6.30;;;15.90;99.90;;;;;;5013369;28;20217;-63
2022/04/14 12:34:23;;;;;;;7.22;6.53;;;16.00;99.90;;;;;;5013966;28;20201;-63
2022/04/14 12:36:50;;;;;;;9.98;6.20;;;16.00;99.90;;;;;;5037183;28;20290;-63
2022/04/14 12:39:20;;;;;;;9.38;7.00;;;16.00;99.90;;;;;;4996613;28;20218;-63
2022/04/14 12:41:48;;;;;;;15.90;8.30;;;15.80;99.90;;;;;;4997711;28;20989;-63
2022/04/14 12:44:20;;;;;;;11.32;8.20;;;15.80;99.90;;;;;;4989074;28;20222;-63
2022/04/14 12:46:50;;;;;;;7.55;6.68;;;15.80;99.90;;;;;;4999966;28;20696;-63